createdAt,value
2022-09-10T00:01:41.172Z,15.14
2022-09-10T00:04:26.786Z,15.13
2022-09-10T00:07:12.788Z,15.10
2022-09-10T00:09:58.494Z,15.07
2022-09-10T00:12:44.146Z,15.13
2022-09-10T00:15:30.397Z,15.11
2022-09-10T00:18:17.674Z,15.06
2022-09-10T00:21:05.798Z,15.01
2022-09-10T00:23:51.498Z,15.01
2022-09-10T00:26:40.277Z,15.04
2022-09-10T00:29:25.605Z,15.14
2022-09-10T00:32:11.387Z,15.06
2022-09-10T00:34:56.986Z,15.04
2022-09-10T00:37:42.786Z,15.03
2022-09-10T00:40:28.598Z,14.98
2022-09-10T00:43:16.419Z,14.92
2022-09-10T00:46:01.505Z,14.89
2022-09-10T00:48:46.782Z,14.83
2022-09-10T00:51:35.574Z,14.71
2022-09-10T00:54:23.886Z,14.56
2022-09-10T00:57:12.461Z,14.49
2022-09-10T01:00:00.259Z,14.41
2022-09-10T01:02:45.408Z,14.39
2022-09-10T01:05:30.758Z,14.43
2022-09-10T01:08:16.889Z,14.42
2022-09-10T01:11:08.411Z,14.40
2022-09-10T01:14:13.305Z,14.30
2022-09-10T01:17:18.430Z,14.25
2022-09-10T01:20:22.628Z,14.34
2022-09-10T01:23:27.026Z,14.24
2022-09-10T01:26:36.519Z,14.24
2022-09-10T01:29:31.025Z,14.15
2022-09-10T01:32:24.352Z,14.03
2022-09-10T01:35:29.375Z,14.00
2022-09-10T01:38:24.010Z,13.96
2022-09-10T01:41:10.375Z,13.96
2022-09-10T01:43:56.558Z,13.98
2022-09-10T01:46:58.548Z,14.02
2022-09-10T01:49:44.001Z,14.01
2022-09-10T01:53:01.797Z,14.00
2022-09-10T01:56:03.856Z,14.05
2022-09-10T01:58:49.306Z,14.11
2022-09-10T02:01:43.616Z,14.14
2022-09-10T02:04:29.920Z,14.07
2022-09-10T02:07:15.937Z,14.15
2022-09-10T02:10:02.708Z,14.17
2022-09-10T02:12:49.016Z,14.11
2022-09-10T02:15:34.509Z,14.02
2022-09-10T02:18:21.402Z,14.02
2022-09-10T02:21:07.220Z,14.05
2022-09-10T02:23:56.781Z,14.01
2022-09-10T02:26:43.418Z,14.01
2022-09-10T02:29:29.219Z,13.94
2022-09-10T02:32:14.871Z,13.96
2022-09-10T02:35:00.428Z,13.95
2022-09-10T02:37:46.400Z,13.87
2022-09-10T02:40:32.141Z,13.88
2022-09-10T02:43:18.102Z,13.87
2022-09-10T02:46:07.254Z,13.88
2022-09-10T02:48:55.001Z,13.88
2022-09-10T02:51:42.764Z,13.98
2022-09-10T02:54:28.909Z,13.99
2022-09-10T02:57:16.889Z,14.15
2022-09-10T03:00:03.243Z,14.23
2022-09-10T03:02:48.490Z,14.11
2022-09-10T03:05:38.281Z,14.16
2022-09-10T03:08:23.580Z,14.21
2022-09-10T03:11:09.854Z,14.18
2022-09-10T03:13:56.004Z,14.16
2022-09-10T03:16:41.180Z,14.15
2022-09-10T03:19:27.038Z,14.09
2022-09-10T03:22:12.183Z,14.06
2022-09-10T03:24:58.657Z,14.06
2022-09-10T03:27:43.829Z,14.14
2022-09-10T03:30:29.471Z,14.18
2022-09-10T03:33:15.634Z,14.24
2022-09-10T03:36:01.871Z,14.22
2022-09-10T03:38:46.904Z,14.31
2022-09-10T03:41:32.564Z,14.17
2022-09-10T03:44:17.867Z,14.14
2022-09-10T03:47:03.005Z,14.11
2022-09-10T03:49:50.625Z,14.24
2022-09-10T03:52:35.791Z,14.24
2022-09-10T03:55:22.092Z,14.28
2022-09-10T03:58:07.433Z,14.39
2022-09-10T04:00:52.842Z,14.29
2022-09-10T04:03:38.145Z,14.37
2022-09-10T04:06:23.659Z,14.32
2022-09-10T04:09:08.845Z,14.38
2022-09-10T04:11:54.322Z,14.33
2022-09-10T04:14:39.560Z,14.39
2022-09-10T04:17:25.326Z,14.39
2022-09-10T04:20:10.559Z,14.49
2022-09-10T04:22:56.672Z,14.52
2022-09-10T04:25:42.032Z,14.43
2022-09-10T04:28:27.477Z,14.51
2022-09-10T04:31:12.855Z,14.60
2022-09-10T04:34:01.334Z,14.47
2022-09-10T04:36:46.566Z,14.49
2022-09-10T04:39:32.453Z,14.49
2022-09-10T04:42:20.226Z,14.49
2022-09-10T04:45:06.291Z,14.56
2022-09-10T04:47:53.080Z,14.52
2022-09-10T04:50:54.090Z,14.51
2022-09-10T04:53:46.624Z,14.53
2022-09-10T04:56:32.028Z,14.49
2022-09-10T04:59:17.394Z,14.51
2022-09-10T05:02:03.695Z,14.60
2022-09-10T05:04:49.120Z,14.59
2022-09-10T05:07:34.552Z,14.60
2022-09-10T05:10:20.452Z,14.60
2022-09-10T05:13:05.818Z,14.59
2022-09-10T05:15:51.192Z,14.58
2022-09-10T05:18:36.435Z,14.69
2022-09-10T05:21:21.604Z,14.70
2022-09-10T05:24:06.838Z,14.75
2022-09-10T05:26:51.982Z,14.77
2022-09-10T05:29:36.991Z,14.81
2022-09-10T05:32:22.609Z,14.87
2022-09-10T05:35:08.615Z,14.90
2022-09-10T05:37:56.068Z,14.95
2022-09-10T05:40:41.982Z,14.94
2022-09-10T05:43:27.687Z,15.00
2022-09-10T05:46:12.961Z,15.07
2022-09-10T05:48:58.417Z,15.04
2022-09-10T05:51:43.793Z,15.10
2022-09-10T05:54:28.939Z,15.22
2022-09-10T05:57:14.306Z,15.17
2022-09-10T06:00:03.479Z,15.38
2022-09-10T06:02:48.607Z,15.31
2022-09-10T06:05:34.292Z,15.37
2022-09-10T06:08:23.313Z,15.42
2022-09-10T06:11:09.928Z,15.56
2022-09-10T06:13:55.378Z,15.60
2022-09-10T06:16:41.015Z,15.55
2022-09-10T06:19:26.214Z,15.60
2022-09-10T06:22:11.783Z,15.68
2022-09-10T06:24:56.907Z,15.77
2022-09-10T06:27:42.081Z,15.83
2022-09-10T06:30:28.229Z,15.93
2022-09-10T06:33:16.768Z,15.85
2022-09-10T06:36:03.285Z,15.83
2022-09-10T06:38:49.308Z,15.79
2022-09-10T06:41:34.600Z,15.86
2022-09-10T06:44:22.258Z,15.90
2022-09-10T18:22:53.277Z,17.51
2022-09-10T18:25:38.433Z,17.52
2022-09-10T18:28:24.380Z,17.44
2022-09-10T18:31:10.820Z,17.43
2022-09-10T18:33:56.239Z,17.45
2022-09-10T18:36:42.036Z,17.45
2022-09-10T18:39:27.792Z,17.44
2022-09-10T18:42:13.714Z,17.41
2022-09-10T18:44:59.344Z,17.37
2022-09-10T18:47:45.457Z,17.31
2022-09-10T18:50:32.113Z,17.30
2022-09-10T18:53:18.224Z,17.26
2022-09-10T18:56:10.571Z,17.17
2022-09-10T18:59:07.153Z,17.18
2022-09-10T19:01:54.049Z,17.10
2022-09-10T19:05:00.498Z,16.94
2022-09-10T19:07:46.569Z,16.84
2022-09-10T19:10:31.845Z,16.61
2022-09-10T19:13:17.189Z,16.61
2022-09-10T19:16:03.680Z,16.46
2022-09-10T19:18:53.008Z,16.36
2022-09-10T19:21:38.322Z,16.36
2022-09-10T19:24:37.917Z,16.45
2022-09-10T19:27:29.352Z,16.49
2022-09-10T19:30:14.928Z,16.33
2022-09-10T19:33:00.461Z,16.22
2022-09-10T19:35:45.901Z,16.22
2022-09-10T19:38:46.684Z,16.15
2022-09-10T19:41:33.113Z,16.16
2022-09-10T19:44:18.601Z,16.12
2022-09-10T19:47:04.187Z,16.13
2022-09-10T19:49:49.655Z,16.10
2022-09-10T19:52:35.281Z,16.11
2022-09-10T19:55:21.197Z,16.23
2022-09-10T19:58:07.012Z,16.27
2022-09-10T20:00:52.212Z,16.29
2022-09-10T20:03:37.963Z,16.33
2022-09-10T20:06:25.275Z,16.30
2022-09-10T20:09:10.833Z,16.21
2022-09-10T20:11:56.357Z,16.02
2022-09-10T20:14:41.508Z,16.04
2022-09-10T20:17:26.784Z,15.97
2022-09-10T20:20:12.111Z,16.03
2022-09-10T20:23:00.662Z,16.08
2022-09-10T20:25:46.030Z,15.97
2022-09-10T20:28:31.328Z,16.04
2022-09-10T20:31:17.355Z,15.97
2022-09-10T20:34:04.277Z,15.97
2022-09-10T20:36:52.987Z,15.97
2022-09-10T20:39:42.022Z,15.96
2022-09-10T20:42:27.845Z,15.96
2022-09-10T20:45:13.194Z,16.02
2022-09-10T20:48:00.246Z,16.00
2022-09-10T20:50:52.134Z,16.05
2022-09-10T20:53:38.375Z,16.10
2022-09-10T20:56:23.709Z,16.11
2022-09-10T20:59:10.920Z,16.10
2022-09-10T21:01:56.627Z,16.12
2022-09-10T21:04:42.114Z,16.14
2022-09-10T21:07:28.414Z,16.12
2022-09-10T21:10:13.653Z,16.11
2022-09-10T21:12:59.017Z,16.05
2022-09-10T21:15:44.291Z,16.06
2022-09-10T21:18:29.777Z,16.05
2022-09-10T21:21:16.245Z,15.90
2022-09-10T21:24:02.529Z,15.88
2022-09-10T21:26:49.227Z,15.77
2022-09-10T21:29:36.163Z,15.76
2022-09-10T21:32:23.304Z,15.71
2022-09-10T21:35:08.907Z,15.58
2022-09-10T21:37:54.018Z,15.61
2022-09-10T21:40:39.053Z,15.62
2022-09-10T21:43:25.719Z,15.68
2022-09-10T21:46:11.672Z,15.66
2022-09-10T21:48:56.899Z,15.63
2022-09-10T21:51:42.582Z,15.81
2022-09-10T21:54:28.136Z,15.97
2022-09-10T21:57:13.567Z,15.92
2022-09-10T21:59:59.057Z,15.90
2022-09-10T22:02:44.228Z,16.08
2022-09-10T22:05:29.921Z,16.17
2022-09-10T22:08:15.399Z,16.21
2022-09-10T22:11:04.992Z,16.30
2022-09-10T22:13:51.853Z,16.38
2022-09-10T22:16:37.154Z,16.42
2022-09-10T22:19:23.425Z,16.38
2022-09-10T22:22:11.147Z,16.31
2022-09-10T22:24:56.213Z,16.44
2022-09-10T22:27:41.349Z,16.49
2022-09-10T22:30:29.600Z,16.49
2022-09-10T22:33:14.631Z,16.48
2022-09-10T22:36:16.728Z,16.55
2022-09-10T22:39:20.944Z,16.45
2022-09-10T22:42:07.457Z,16.44
2022-09-10T22:44:53.140Z,16.45
2022-09-10T22:47:38.462Z,16.46
2022-09-10T22:50:23.817Z,16.42
2022-09-10T22:53:09.268Z,16.45
2022-09-10T22:55:54.556Z,16.49
2022-09-10T22:58:40.337Z,16.35
2022-09-10T23:01:27.566Z,16.36
2022-09-10T23:04:12.960Z,16.17
2022-09-10T23:06:58.376Z,16.13
2022-09-10T23:09:43.484Z,16.16
2022-09-10T23:12:28.868Z,16.24
2022-09-10T23:15:14.287Z,16.28
2022-09-10T23:17:59.744Z,16.25
2022-09-10T23:20:45.026Z,16.11
2022-09-10T23:23:30.441Z,16.16
2022-09-10T23:26:17.156Z,16.16
2022-09-10T23:29:04.142Z,16.25
2022-09-10T23:31:49.781Z,16.23
2022-09-10T23:34:35.220Z,16.09
2022-09-10T23:37:20.618Z,16.18
2022-09-10T23:40:06.608Z,16.02
2022-09-10T23:42:52.198Z,16.07
2022-09-10T23:45:37.561Z,16.04
2022-09-10T23:48:24.455Z,16.11
2022-09-10T23:51:12.241Z,16.20
2022-09-10T23:53:57.451Z,16.16
2022-09-10T23:56:43.651Z,16.15
2022-09-10T23:59:29.159Z,16.15
